Tiempo atmosférico en la estación meteorológica de Motilla Del Palancar, Cuenca (830 m.)



Fecha
DESCASC
Temp. máxima en grados centígrados (hora)
DESCASC
Temp. mínima en grados centígrados (hora)
DESCASC
Temp. media en grados centígrados
DESCASC
Racha de viento máxima en m/sg (hora)
DESCASC
Velocidad máxima media en intervalos de 10 minutos(hora)
DESCASC
Precipitaciones diarias en mm
DESCASC
Precipitaciones de 00:00 a 06:00 en mm
DESCASC
Precipitaciones de 06:00 a 12:00 en mm
DESCASC
Precipitaciones de 12:00 a 18:00 en mm
DESCASC
Precipitaciones de 18:00 a 24:00 en mm
DESCASC
25-04-2019 12.6 (18:00) 4.8 (23:30) 8.7 14.72 (14:50) 8.33 (14:50) 5.2 2.4 1.4 1 0.4
24-04-2019 13.9 (17:20) 2.8 (03:10) 8.3 14.17 (19:50) 9.17 (17:40) 0.2 0.2 0 0 0
23-04-2019 11.2 (18:30) 4.3 (23:00) 7.8 13.61 (19:30) 9.44 (19:30) 3.2 0 0.8 2.2 0.2
22-04-2019 13.8 (18:10) 7.1 (00:00) 10.5 8.89 (16:50) 4.72 (16:50) 1.8 1.8 0 0 0
21-04-2019 10.2 (11:50) 6.4 (00:00) 8.3 8.06 (13:30) 4.44 (02:40) 6.2 0 0 0.8 5.4
20-04-2019 13.2 (13:30) 7.1 (00:00) 10.1 21.11 (12:30) 10.83 (12:10) 3 2.8 0 0.2 0
19-04-2019 9.2 (10:40) 6.6 (00:00) 7.9 6.11 (09:20) 3.33 (09:30) 41.4 0 2.8 24.2 14.4
18-04-2019 10.4 (11:00) 7.4 (00:00) 8.9 9.17 (00:30) 4.17 (18:20) 16 0 0 15.6 0.4
17-04-2019 18.7 (15:50) 7.5 (00:00) 13.1 12.5 (16:20) 7.22 (18:50) 0 0 0 0 0
16-04-2019 20.3 (18:10) 6.1 (00:00) 13.2 11.39 (21:10) 6.67 (19:30) 0 0 0 0 0
15-04-2019 22.2 (17:00) 8.1 (00:00) 15.2 11.94 (19:10) 7.78 (19:10) 0 0 0 0 0
14-04-2019 21.6 (17:20) 1.8 (00:00) 11.7 8.61 (15:40) 4.44 (15:40) 0 0 0 0 0
13-04-2019 19.1 (17:30) -0.5 (-00:0) 9.3 11.67 (15:10) 5.56 (12:40) 0 0 0 0 0
12-04-2019 16 (18:20) 0.7 (00:00) 8.3 11.11 (17:00) 5.28 (16:40) 0 0 0 0 0
11-04-2019 14.9 (17:00) 1 (00:00) 7.9 11.11 (16:30) 5.56 (16:00) 0 0 0 0 0
10-04-2019 11.6 (13:50) 1.9 (00:00) 6.8 12.22 (16:00) 7.22 (15:50) 0 0 0 0 0
09-04-2019 10.7 (14:50) 3.8 (00:00) 7.2 15.83 (20:20) 8.33 (19:10) 9.8 0 0 8.8 1
08-04-2019 15.5 (17:10) 5.6 (00:00) 10.5 11.39 (18:20) 7.22 (18:40) 1.6 0.8 0.8 0 0
07-04-2019 12.1 (17:40) 2.8 (00:00) 7.5 13.61 (12:00) 7.78 (11:20) 0.6 0.2 0.4 0 0
06-04-2019 9 (16:10) 1.5 (00:00) 5.3 16.39 (14:30) 8.33 (14:30) 1.2 0.6 0 0.6 0
05-04-2019 9.2 (11:20) 1.6 (00:00) 5.4 11.67 (16:20) 7.78 (16:20) 3.8 0 0 2.6 1.2
04-04-2019 12.9 (17:40) 1.3 (00:00) 7.1 8.89 (14:00) 4.17 (13:40) 0 0 0 0 0
03-04-2019 16.7 (16:30) 1.9 (00:00) 9.3 14.17 (17:30) 8.33 (15:10) 0 0 0 0 0
02-04-2019 15.1 (15:40) 6.4 (00:00) 10.8 8.33 (19:00) 5 (19:00) 0.6 0 0 0.4 0.2
01-04-2019 13.8 (16:40) 7.4 (00:00) 10.6 6.39 (18:00) 5 (18:00) 9.4 2.6 4.4 0 2.4
31-03-2019 9.5 (15:30) 5.1 (00:00) 7.3 7.5 (04:30) 3.89 (11:20) 12.6 0.2 8 4 0.4
30-03-2019 16.6 (15:50) 2.5 (00:00) 9.6 10.56 (22:20) 5.28 (22:20) 0 0 0 0 0
29-03-2019 15.6 (14:40) 2.2 (00:00) 8.9 11.67 (12:00) 6.11 (12:10) 0 0 0 0 0
28-03-2019 17.1 (16:00) -1.9 (-00:0) 7.6 9.17 (15:10) 4.72 (18:20) 0 0 0 0 0
27-03-2019 17.3 (16:20) 2.9 (00:00) 10.1 8.61 (14:20) 4.72 (17:30) 0 0 0 0 0

Gráficas

Temp. máximas Temp. mínimas Temp. medias Precipitaciones Rachas de viento máximas Velocidades máximas media en intervalos de 10 minutos

Datos horarios

Fecha y hora oficial Temperatura (ºC) Velocidad del viento (km/h) Dirección del viento Racha (km/h) Dirección de racha Precipitación (mm) Presión (hPa) Tendencia (hPa) Humedad (%)
2019-04-25 23:00:00 5.2 3 Oeste 10 Sudoeste 0.2 -- -- 86
2019-04-25 22:00:00 7 4 Oeste 30 Oeste 0 -- -- 79
2019-04-25 21:00:00 8.1 10 Oeste 35 Oeste 0 -- -- 76
2019-04-25 20:00:00 9.9 19 Oeste 40 Noroeste 0 -- -- 73
2019-04-25 19:00:00 11 22 Oeste 51 Oeste 0.2 -- -- 66
2019-04-25 18:00:00 12.6 28 Oeste 51 Sudoeste 0 -- -- 56
2019-04-25 17:00:00 12.4 26 Oeste 49 Oeste 0.2 -- -- 64
2019-04-25 16:00:00 11.3 22 Oeste 45 Sudoeste 0.2 -- -- 75
2019-04-25 15:00:00 12.1 23 Oeste 53 Oeste 0.2 -- -- 62
2019-04-25 14:00:00 11.2 26 Oeste 45 Oeste 0.2 -- -- 73
2019-04-25 13:00:00 9.8 17 Oeste 33 Oeste 0.2 -- -- 80
2019-04-25 12:00:00 7.9 8 Oeste 36 Oeste 0.2 -- -- 91
2019-04-25 11:00:00 8.3 21 Sudoeste 35 Sudoeste 0.2 -- -- 92
2019-04-25 10:00:00 7.9 11 Oeste 21 Oeste 0.2 -- -- 97
2019-04-25 09:00:00 7.4 12 Oeste 26 Oeste 0.2 -- -- 96
2019-04-25 08:00:00 7.6 12 Oeste 22 Oeste 0.2 -- -- 96
2019-04-25 07:00:00 7.8 12 Oeste 28 Oeste 0.4 -- -- 96
2019-04-25 06:00:00 8.3 14 Oeste 51 Oeste 0.4 -- -- 94
2019-04-25 05:00:00 9.4 19 Sudoeste 35 Sudoeste 0.2 -- -- 95
2019-04-25 04:00:00 9.6 21 Sudoeste 33 Sur 0.4 -- -- 93
2019-04-25 03:00:00 9.6 19 Sudoeste 32 Sudoeste 0.2 -- -- 92
2019-04-25 02:00:00 9.2 14 Sudoeste 25 Sudoeste 0.8 -- -- 96
2019-04-25 01:00:00 9.4 16 Sudoeste 35 Sudoeste 0.4 -- -- 94
2019-04-25 00:00:00 10.1 21 Sudoeste 38 Sudoeste 0 -- -- 88
2019-04-24 23:00:00 10.7 27 Sudoeste 43 Sudoeste 0 -- -- 82
2019-04-24 22:00:00 10.7 19 Sudoeste 32 Oeste 0 -- -- 80
2019-04-24 21:00:00 11.2 20 Sudoeste 38 Sudoeste 0 -- -- 75
2019-04-24 20:00:00 12.9 27 Sudoeste 51 Sudoeste 0 -- -- 69
2019-04-24 19:00:00 13.6 32 Sudoeste 48 Sudoeste 0 -- -- 64
2019-04-24 18:00:00 13.1 27 Sudoeste 47 Sudoeste 0 -- -- 69
2019-04-24 17:00:00 12.9 30 Sudoeste 46 Sudoeste 0 -- -- 69
2019-04-24 16:00:00 11.7 26 Sudoeste 44 Sudoeste 0 -- -- 73
2019-04-24 15:00:00 11.2 28 Sudoeste 42 Sudoeste 0 -- -- 74
2019-04-24 14:00:00 9.5 27 Sudoeste 44 Sudoeste 0 -- -- 79
2019-04-24 13:00:00 9.2 25 Sudoeste 42 Sudoeste 0 -- -- 79
2019-04-24 12:00:00 8.3 25 Sudoeste 39 Sudoeste 0 -- -- 77
2019-04-24 11:00:00 7.5 22 Sudoeste 34 Sudoeste 0 -- -- 81
2019-04-24 10:00:00 6.2 21 Sudoeste 31 Sudoeste 0 -- -- 82
2019-04-24 09:00:00 4.6 17 Sudoeste 27 Oeste 0 -- -- 92
2019-04-24 08:00:00 3.5 6 Sudoeste 18 Oeste 0 -- -- 95
2019-04-24 07:00:00 3.9 9 Oeste 28 Oeste 0 -- -- 92
2019-04-24 06:00:00 3.5 10 Sudoeste 28 Sudoeste 0 -- -- 94
2019-04-24 05:00:00 3.3 17 Sudoeste 30 Sudoeste 0 -- -- 95
2019-04-24 04:00:00 3.4 14 Sudoeste 22 Sudoeste 0 -- -- 95
2019-04-24 03:00:00 2.9 8 Sudoeste 15 Sudoeste 0 -- -- 95
2019-04-24 02:00:00 3.3 5 Oeste 16 Oeste 0 -- -- 93
2019-04-24 01:00:00 4.3 12 Oeste 30 Oeste 0.2 -- -- 91
2019-04-24 00:00:00 4.6 14 Oeste 27 Sudoeste 0 -- -- 90
2019-04-23 23:00:00 4.3 13 Sudoeste 32 Sudoeste 0 -- -- 90
2019-04-23 22:00:00 5.5 19 Sudoeste 29 Oeste 0 -- -- 85
2019-04-23 21:00:00 5.7 13 Sudoeste 30 Sudoeste 0.2 -- -- 89
2019-04-23 20:00:00 5.9 22 Sudoeste 49 Sudoeste 0 -- -- 89
2019-04-23 19:00:00 10.3 14 Oeste 37 Sudoeste 0 -- -- 63
2019-04-23 18:00:00 10.9 15 Sudoeste 29 Sudoeste 0 -- -- 71
2019-04-23 17:00:00 9.4 18 Sudoeste 33 Oeste 0 -- -- 82
2019-04-23 16:00:00 9.3 18 Oeste 36 Sudoeste 0.6 -- -- 87
2019-04-23 15:00:00 10 14 Sudoeste 24 Sur 0.4 -- -- 89
2019-04-23 14:00:00 9.7 8 Sudoeste 24 Sudoeste 0.6 -- -- 88
2019-04-23 13:00:00 9.4 18 Sudoeste 34 Sudoeste 0.6 -- -- 94
2019-04-23 12:00:00 9.5 21 Sudoeste 31 Sudoeste 0.6 -- -- 90
2019-04-23 11:00:00 9.9 15 Sudoeste 29 Sudoeste 0 -- -- 86
2019-04-23 10:00:00 10.3 8 Sudoeste 23 Sudoeste 0 -- -- 89
2019-04-23 09:00:00 9.1 9 Sudoeste 15 Sudoeste 0 -- -- 95
2019-04-23 08:00:00 7.6 8 Sudoeste 13 Sudoeste 0.2 -- -- 96
2019-04-23 07:00:00 7.1 3 Sudoeste 9 Oeste 0 -- -- 97
2019-04-23 06:00:00 6.6 7 Sudoeste 12 Sudoeste 0 -- -- 98
2019-04-23 05:00:00 5.6 0 Calma 4 Nordeste 0 -- -- 96
2019-04-23 04:00:00 6.1 0 Calma 3 Nordeste 0 -- -- 95
2019-04-23 03:00:00 6.8 0 Calma 4 Este 0 -- -- 93
2019-04-23 02:00:00 7.7 0 Calma 5 Nordeste 0 -- -- 92
2019-04-23 01:00:00 8 0 Calma 5 Nordeste 0 -- -- 92
2019-04-23 00:00:00 7.9 0 Calma 6 Sudoeste 0 -- -- 92
2019-04-22 23:00:00 8.8 0 Calma 3 Este 0 -- -- 87
2019-04-22 22:00:00 10.5 0 Calma 5 Sudoeste 0 -- -- 84
2019-04-22 21:00:00 11.3 4 Sudoeste 18 Oeste 0 -- -- 80
2019-04-22 20:00:00 12.2 11 Oeste 24 Oeste 0 -- -- 76
2019-04-22 19:00:00 13.2 13 Oeste 24 Oeste 0 -- -- 70
2019-04-22 18:00:00 13.5 12 Oeste 29 Oeste 0 -- -- 71
2019-04-22 17:00:00 13 15 Oeste 32 Oeste 0 -- -- 72
2019-04-22 16:00:00 13 14 Noroeste 26 Noroeste 0 -- -- 74
2019-04-22 15:00:00 12.4 14 Oeste 24 Oeste 0 -- -- 75
2019-04-22 14:00:00 12.4 11 Oeste 19 Oeste 0 -- -- 73
2019-04-22 13:00:00 12.2 10 Oeste 17 Oeste 0 -- -- 75
2019-04-22 12:00:00 11.7 9 Noroeste 16 Noroeste 0 -- -- 74
2019-04-22 11:00:00 10 9 Noroeste 15 Noroeste 0 -- -- 83
2019-04-22 10:00:00 8.8 6 Noroeste 11 Norte 0 -- -- 90
2019-04-22 09:00:00 7.6 4 Noroeste 13 Noroeste 0 -- -- 94
2019-04-22 08:00:00 7.2 6 Noroeste 18 Noroeste 0 -- -- 94
2019-04-22 07:00:00 7.2 9 Noroeste 19 Noroeste 0 -- -- 95
2019-04-22 06:00:00 7.2 9 Noroeste 15 Noroeste 0 -- -- 96
2019-04-22 05:00:00 7.2 5 Noroeste 14 Noroeste 0 -- -- 96
2019-04-22 04:00:00 7.2 6 Noroeste 11 Oeste 0 -- -- 96
2019-04-22 03:00:00 7.3 2 Oeste 6 Norte 0 -- -- 95
2019-04-22 02:00:00 7.4 2 Norte 9 Noroeste 0.4 -- -- 95
2019-04-22 01:00:00 7.3 5 Norte 9 Norte 1.4 -- -- 95
2019-04-22 00:00:00 7.5 5 Noroeste 7 Noroeste 1.2 -- -- 95
2019-04-21 23:00:00 7.8 3 Noroeste 6 Norte 1.2 -- -- 94
2019-04-21 22:00:00 8 3 Norte 11 Norte 1 -- -- 93
2019-04-21 21:00:00 8.3 4 Norte 8 Norte 1 -- -- 92
2019-04-21 20:00:00 8.7 4 Norte 12 Norte 0.4 -- -- 90
2019-04-21 19:00:00 9.1 6 Norte 13 Norte 0.6 -- -- 87
2019-04-21 18:00:00 9.5 6 Norte 12 Norte 0.2 -- -- 82
2019-04-21 17:00:00 9.7 6 Este 18 Nordeste 0.6 -- -- 81
2019-04-21 16:00:00 10 8 Nordeste 19 Nordeste 0 -- -- 71
2019-04-21 15:00:00 9.7 10 Este 26 Nordeste 0 -- -- 74
2019-04-21 14:00:00 9.7 15 Este 29 Este 0 -- -- 71
2019-04-21 13:00:00 10 11 Nordeste 24 Este 0 -- -- 68
2019-04-21 12:00:00 10.2 15 Nordeste 26 Nordeste 0 -- -- 66
2019-04-21 11:00:00 8.8 11 Nordeste 19 Nordeste 0 -- -- 72
2019-04-21 10:00:00 8.5 8 Nordeste 23 Nordeste 0 -- -- 73
2019-04-21 09:00:00 7.4 6 Nordeste 14 Nordeste 0 -- -- 77
2019-04-21 08:00:00 6.8 5 Nordeste 11 Nordeste 0 -- -- 79
2019-04-21 07:00:00 6.6 3 Nordeste 11 Este 0 -- -- 81
2019-04-21 06:00:00 6.6 3 Este 20 Nordeste 0 -- -- 81
2019-04-21 05:00:00 6.7 6 Nordeste 21 Nordeste 0 -- -- 82
2019-04-21 04:00:00 7 10 Nordeste 27 Nordeste 0 -- -- 79
2019-04-21 03:00:00 7.5 12 Nordeste 28 Nordeste 0 -- -- 74
2019-04-21 02:00:00 7.9 13 Nordeste 28 Nordeste 0 -- -- 71
2019-04-21 01:00:00 8.2 13 Nordeste 27 Nordeste 0 -- -- 71
2019-04-21 00:00:00 8.4 9 Nordeste 24 Nordeste 0 -- -- 71
2019-04-20 23:00:00 8.7 15 Nordeste 27 Este 0 -- -- 71
2019-04-20 22:00:00 9.1 10 Nordeste 31 Nordeste 0 -- -- 69
2019-04-20 21:00:00 9.5 14 Nordeste 30 Nordeste 0 -- -- 66
2019-04-20 20:00:00 10 15 Nordeste 41 Este 0 -- -- 64
2019-04-20 19:00:00 10.4 25 Nordeste 43 Nordeste 0 -- -- 63
2019-04-20 18:00:00 10.1 18 Este 45 Nordeste 0 -- -- 70
2019-04-20 17:00:00 10.5 14 Este 44 Este 0 -- -- 72
2019-04-20 16:00:00 10.5 21 Este 54 Este 0 -- -- 69
2019-04-20 15:00:00 11.6 22 Este 61 Nordeste 0 -- -- 62
2019-04-20 14:00:00 13 26 Este 72 Nordeste 0 -- -- 55
2019-04-20 13:00:00 12.6 34 Este 76 Nordeste 0.2 -- -- 51
2019-04-20 12:00:00 12.7 38 Este 72 Nordeste 0 -- -- 49
2019-04-20 11:00:00 12.5 25 Este 51 Nordeste 0 -- -- 60
2019-04-20 10:00:00 11.6 17 Este 41 Este 0 -- -- 66
2019-04-20 09:00:00 10.8 13 Este 40 Nordeste 0 -- -- 69
2019-04-20 08:00:00 10.8 17 Este 39 Nordeste 0 -- -- 66
2019-04-20 07:00:00 10.2 18 Nordeste 33 Este 0 -- -- 66
2019-04-20 06:00:00 8.8 3 Este 27 Nordeste 0 -- -- 76
2019-04-20 05:00:00 9.3 11 Este 30 Este 0 -- -- 76
2019-04-20 04:00:00 9.3 16 Este 37 Nordeste 0 -- -- 79
2019-04-20 03:00:00 8.9 12 Nordeste 26 Este 0.2 -- -- 88
2019-04-20 02:00:00 8.6 7 Este 21 Nordeste 1.2 -- -- 98
2019-04-20 01:00:00 7.5 0 Calma 9 Noroeste 1.4 -- -- 98
2019-04-20 00:00:00 7.1 5 Noroeste 16 Noroeste 1.8 -- -- 97
2019-04-19 23:00:00 6.8 9 Noroeste 19 Oeste 2.2 -- -- 97
2019-04-19 22:00:00 6.7 4 Oeste 13 Oeste 2.4 -- -- 98
2019-04-19 21:00:00 6.8 5 Sudoeste 10 Noroeste 2.4 -- -- 97
2019-04-19 20:00:00 6.7 6 Noroeste 13 Noroeste 2.6 -- -- 96
2019-04-19 19:00:00 6.9 8 Noroeste 15 Noroeste 3 -- -- 95
2019-04-19 18:00:00 7.1 6 Noroeste 11 Norte 3.2 -- -- 92
2019-04-19 17:00:00 7.5 0 Calma 9 Noroeste 2.6 -- -- 91
2019-04-19 16:00:00 7.8 3 Noroeste 14 Oeste 3 -- -- 90
2019-04-19 15:00:00 7.6 4 Noroeste 8 Noroeste 5.2 -- -- 92
2019-04-19 14:00:00 8 3 Sudoeste 5 Oeste 5.8 -- -- 95
2019-04-19 13:00:00 8.4 3 Este 12 Este 4.4 -- -- 96
2019-04-19 12:00:00 8.8 4 Este 14 Este 2.6 -- -- 95
2019-04-19 11:00:00 9.2 6 Sudeste 17 Sudeste 0.2 -- -- 94
2019-04-19 10:00:00 8.9 8 Este 22 Sudeste 0 -- -- 96
2019-04-19 09:00:00 8.7 5 Este 14 Este 0 -- -- 98
2019-04-19 08:00:00 7.8 7 Nordeste 14 Este 0 -- -- 97
2019-04-19 07:00:00 7.6 3 Este 9 Este 0 -- -- 97
2019-04-19 06:00:00 7.6 2 Este 8 Nordeste 0 -- -- 97
2019-04-19 05:00:00 7.7 4 Este 15 Este 0 -- -- 97
2019-04-19 04:00:00 7.7 4 Sudeste 6 Sudeste 0 -- -- 97
2019-04-19 03:00:00 7.5 0 Calma 9 Este 0 -- -- 97
2019-04-19 02:00:00 7.5 2 Este 8 Este 0 -- -- 97
2019-04-19 01:00:00 7.3 2 Este 8 Este 0 -- -- 96
2019-04-19 00:00:00 7.4 4 Este 10 Este 0 -- -- 95
2019-04-18 23:00:00 7.7 2 Nordeste 9 Nordeste 0 -- -- 95
2019-04-18 22:00:00 7.9 5 Nordeste 12 Este 0 -- -- 94
2019-04-18 21:00:00 8.2 3 Nordeste 11 Nordeste 0 -- -- 91
2019-04-18 20:00:00 8.1 6 Nordeste 19 Nordeste 0 -- -- 91
2019-04-18 19:00:00 8.4 11 Nordeste 25 Nordeste 0.4 -- -- 94
2019-04-18 18:00:00 8.3 10 Este 20 Este 3 -- -- 94
2019-04-18 17:00:00 8.6 5 Norte 13 Oeste 3 -- -- 94
2019-04-18 16:00:00 8.4 7 Noroeste 15 Oeste 2.8 -- -- 95
2019-04-18 15:00:00 7.9 9 Sudoeste 23 Oeste 4.6 -- -- 94
2019-04-18 14:00:00 9.5 6 Sudeste 14 Sudeste 2 -- -- 93
2019-04-18 13:00:00 9.6 5 Sudeste 15 Este 0.2 -- -- 91
2019-04-18 12:00:00 10 10 Este 21 Sudeste 0 -- -- 83
2019-04-18 11:00:00 10.4 13 Sudeste 21 Este 0 -- -- 81
2019-04-18 10:00:00 9.9 15 Sudeste 23 Sudeste 0 -- -- 76
2019-04-18 09:00:00 9.1 6 Este 19 Este 0 -- -- 85
2019-04-18 08:00:00 8.8 6 Noroeste 15 Nordeste 0 -- -- 82
2019-04-18 07:00:00 9 8 Nordeste 15 Nordeste 0 -- -- 78
2019-04-18 06:00:00 9.1 7 Nordeste 15 Nordeste 0 -- -- 77
2019-04-18 05:00:00 9.1 6 Nordeste 20 Este 0 -- -- 78
2019-04-18 04:00:00 8.8 10 Este 19 Nordeste 0 -- -- 83
2019-04-18 03:00:00 8.6 5 Este 18 Este 0 -- -- 82
2019-04-18 02:00:00 9.1 7 Este 23 Este 0 -- -- 82
2019-04-18 01:00:00 9.4 13 Sudeste 33 Este 0 -- -- 84
2019-04-18 00:00:00 9.4 11 Este 36 Este 0 -- -- 84
2019-04-17 23:00:00 9.9 10 Este 32 Este 0 -- -- 82
2019-04-17 22:00:00 10.6 17 Este 32 Este 0 -- -- 81
2019-04-17 21:00:00 11.5 17 Este 38 Este 0 -- -- 78
2019-04-17 20:00:00 13.2 17 Este 42 Este 0 -- -- 72
2019-04-17 19:00:00 15.5 24 Este 43 Este 0 -- -- 65
2019-04-17 18:00:00 17.1 18 Este 41 Este 0 -- -- 59
2019-04-17 17:00:00 17.8 25 Este 45 Este 0 -- -- 55
2019-04-17 16:00:00 18.7 18 Este 36 Este 0 -- -- 53
2019-04-17 15:00:00 18.2 20 Sudeste 35 Sudeste 0 -- -- 52
2019-04-17 14:00:00 17.5 18 Sudeste 36 Este 0 -- -- 56
2019-04-17 13:00:00 15.2 18 Sudeste 37 Este 0 -- -- 64
2019-04-17 12:00:00 13.9 21 Este 37 Sudeste 0 -- -- 70
2019-04-17 11:00:00 12.4 20 Sudeste 37 Este 0 -- -- 74
2019-04-17 10:00:00 10.1 15 Este 33 Este 0 -- -- 82
2019-04-17 09:00:00 8.8 13 Este 28 Este 0 -- -- 87
2019-04-17 08:00:00 8.2 10 Este 23 Este 0 -- -- 87
2019-04-17 07:00:00 8.4 13 Este 26 Este 0 -- -- 87
2019-04-17 06:00:00 8.6 12 Este 27 Este 0 -- -- 88
2019-04-17 05:00:00 8.3 15 Este 30 Sudeste 0 -- -- 90
2019-04-17 04:00:00 7.5 6 Este 27 Este 0 -- -- 91
2019-04-17 03:00:00 7.8 11 Este 29 Este 0 -- -- 91
2019-04-17 02:00:00 7.8 12 Este 28 Este 0 -- -- 90
2019-04-17 01:00:00 8.4 12 Este 27 Este 0 -- -- 83
2019-04-17 00:00:00 9.2 10 Este 33 Este 0 -- -- 80
2019-04-16 23:00:00 10.3 17 Este 35 Este 0 -- -- 75
2019-04-16 22:00:00 11.6 21 Este 41 Este 0 -- -- 69
2019-04-16 21:00:00 13.4 23 Este 39 Este 0 -- -- 65
2019-04-16 20:00:00 16.5 21 Sudeste 37 Sudeste 0 -- -- 60
2019-04-16 19:00:00 20.1 14 Sudeste 23 Sur 0 -- -- 32
2019-04-16 18:00:00 20.2 14 Sur 27 Sur 0 -- -- 28
2019-04-16 17:00:00 20.1 13 Sudeste 23 Sudeste 0 -- -- 33
2019-04-16 16:00:00 19.7 9 Sudeste 27 Sudeste 0 -- -- 33
2019-04-16 15:00:00 18.7 8 Sur 24 Sur 0 -- -- 38
2019-04-16 14:00:00 17.7 6 Este 17 Sudeste 0 -- -- 42
2019-04-16 13:00:00 16.4 9 Sur 17 Sur 0 -- -- 51
2019-04-16 12:00:00 15.6 4 Este 17 Sudeste 0 -- -- 51
2019-04-16 11:00:00 14.4 7 Este 16 Norte 0 -- -- 59
2019-04-16 10:00:00 11.5 7 Nordeste 17 Nordeste 0 -- -- 67
2019-04-16 09:00:00 7.4 3 Este 9 Norte 0 -- -- 86
2019-04-16 08:00:00 6.2 5 Noroeste 10 Nordeste 0 -- -- 89
2019-04-16 07:00:00 6.4 5 Noroeste 14 Noroeste 0 -- -- 90
2019-04-16 06:00:00 6.6 8 Oeste 18 Oeste 0 -- -- 91
2019-04-16 05:00:00 7.4 8 Oeste 15 Oeste 0 -- -- 87
2019-04-16 04:00:00 8.2 5 Oeste 14 Oeste 0 -- -- 83
2019-04-16 03:00:00 9.5 4 Oeste 14 Oeste 0 -- -- 75
2019-04-16 02:00:00 11.7 9 Oeste 17 Oeste 0 -- -- 68
2019-04-16 01:00:00 13.1 8 Oeste 23 Noroeste 0 -- -- 66
2019-04-16 00:00:00 13.8 12 Oeste 32 Noroeste 0 -- -- 64
2019-04-15 23:00:00 13.8 0 Calma 14 Sudoeste 0 -- -- 56
2019-04-15 22:00:00 16.6 13 Sudoeste 32 Sudoeste 0 -- -- 37
2019-04-15 21:00:00 17.9 18 Sudoeste 30 Sudoeste 0 -- -- 35
2019-04-15 20:00:00 20.6 22 Sudoeste 43 Sudoeste 0 -- -- 32
2019-04-15 19:00:00 21.7 22 Sudoeste 34 Sudoeste 0 -- -- 31
2019-04-15 18:00:00 21.4 14 Sudeste 26 Sur 0 -- -- 51
2019-04-15 17:00:00 22.2 14 Sudeste 28 Este 0 -- -- 47
2019-04-15 16:00:00 21.4 12 Sudeste 27 Sudeste 0 -- -- 50
2019-04-15 15:00:00 19.9 11 Sudeste 24 Sudeste 0 -- -- 51
2019-04-15 14:00:00 19.8 14 Sudeste 30 Sudeste 0 -- -- 54
2019-04-15 13:00:00 19.3 12 Sudeste 28 Este 0 -- -- 55
2019-04-15 12:00:00 17.6 15 Este 26 Este 0 -- -- 61
2019-04-15 11:00:00 15.6 14 Sudeste 25 Este 0 -- -- 68
2019-04-15 10:00:00 14.5 10 Este 20 Este 0 -- -- 72
2019-04-15 09:00:00 9.8 0 Calma 4 Nordeste 0 -- -- 88
2019-04-15 08:00:00 8.1 3 Este 5 Norte 0 -- -- 87
2019-04-15 07:00:00 8.7 3 Nordeste 5 Nordeste 0 -- -- 86
2019-04-15 06:00:00 8.8 3 Nordeste 6 Nordeste 0 -- -- 85
2019-04-15 05:00:00 9.2 0 Calma 5 Nordeste 0 -- -- 84
2019-04-15 04:00:00 9.4 3 Norte 10 Nordeste 0 -- -- 82
2019-04-15 03:00:00 9 2 Nordeste 5 Norte 0 -- -- 82
2019-04-15 02:00:00 8.6 0 Calma 6 Este 0 -- -- 81
2019-04-15 01:00:00 10 4 Nordeste 8 Nordeste 0 -- -- 76
2019-04-15 00:00:00 9.6 0 Calma 5 Este 0 -- -- 77
2019-04-14 23:00:00 10.9 3 Nordeste 5 Noroeste 0 -- -- 71
2019-04-14 22:00:00 13.8 0 Calma 6 Oeste 0 -- -- 61
2019-04-14 21:00:00 17.4 4 Oeste 14 Oeste 0 -- -- 50
2019-04-14 20:00:00 20 9 Oeste 23 Oeste 0 -- -- 44
2019-04-14 19:00:00 21.5 11 Oeste 26 Oeste 0 -- -- 42
2019-04-14 18:00:00 21.5 13 Oeste 27 Oeste 0 -- -- 41
2019-04-14 17:00:00 21.3 14 Oeste 28 Noroeste 0 -- -- 41
2019-04-14 16:00:00 20.6 15 Oeste 31 Oeste 0 -- -- 41
2019-04-14 15:00:00 19.9 15 Oeste 28 Noroeste 0 -- -- 44
2019-04-14 14:00:00 18.7 14 Noroeste 25 Oeste 0 -- -- 46
2019-04-14 13:00:00 17.7 13 Oeste 28 Noroeste 0 -- -- 55
2019-04-14 12:00:00 15.5 11 Oeste 22 Oeste 0 -- -- 57
2019-04-14 11:00:00 14 13 Oeste 23 Oeste 0 -- -- 57
2019-04-14 10:00:00 11.7 8 Oeste 15 Oeste 0 -- -- 58
2019-04-14 09:00:00 5.8 0 Calma 4 Noroeste 0 -- -- 74
2019-04-14 08:00:00 3.4 3 Noroeste 6 Noroeste 0 -- -- 71
2019-04-14 07:00:00 2.5 0 Calma 4 Sudoeste 0 -- -- 71
2019-04-14 06:00:00 1.9 0 Calma 3 Este 0 -- -- 71
2019-04-14 05:00:00 2.4 0 Calma 7 Nordeste 0 -- -- 67
2019-04-14 04:00:00 3.1 3 Nordeste 10 Nordeste 0 -- -- 61
2019-04-14 03:00:00 3 3 Nordeste 6 Nordeste 0 -- -- 60
2019-04-14 02:00:00 3.2 0 Calma 6 Nordeste 0 -- -- 63
2019-04-14 01:00:00 5.7 2 Norte 6 Norte 0 -- -- 53
2019-04-14 00:00:00 5.8 4 Nordeste 6 Nordeste 0 -- -- 50
2019-04-13 23:00:00 7.5 4 Nordeste 8 Nordeste 0 -- -- 44
2019-04-13 22:00:00 9.5 2 Oeste 8 Oeste 0 -- -- 43
2019-04-13 21:00:00 14.4 5 Oeste 19 Oeste 0 -- -- 26
2019-04-13 20:00:00 17.5 12 Oeste 30 Oeste 0 -- -- 19
2019-04-13 19:00:00 18.5 15 Oeste 31 Oeste 0 -- -- 19
2019-04-13 18:00:00 18.9 16 Oeste 32 Oeste 0 -- -- 21
2019-04-13 17:00:00 18.8 17 Oeste 32 Oeste 0 -- -- 22
2019-04-13 16:00:00 18.4 15 Oeste 42 Sudoeste 0 -- -- 26
2019-04-13 15:00:00 17.7 15 Oeste 35 Oeste 0 -- -- 27
2019-04-13 14:00:00 16.7 15 Oeste 29 Oeste 0 -- -- 31
2019-04-13 13:00:00 15.8 17 Oeste 37 Oeste 0 -- -- 31
2019-04-13 12:00:00 15 17 Noroeste 35 Oeste 0 -- -- 34
2019-04-13 11:00:00 12.8 8 Oeste 17 Noroeste 0 -- -- 47
2019-04-13 10:00:00 9.1 6 Noroeste 11 Oeste 0 -- -- 57
2019-04-13 09:00:00 3.4 0 Calma 12 Noroeste 0 -- -- 78
2019-04-13 08:00:00 -0.5 0 Calma 3 Norte 0 -- -- 86
2019-04-13 07:00:00 0.9 2 Sudoeste 9 Nordeste 0 -- -- 77
2019-04-13 06:00:00 3.1 5 Norte 8 Norte 0 -- -- 71
2019-04-13 05:00:00 2.7 3 Noroeste 6 Noroeste 0 -- -- 73
2019-04-13 04:00:00 2.7 0 Calma 11 Nordeste 0 -- -- 71
2019-04-13 03:00:00 3.4 5 Nordeste 9 Nordeste 0 -- -- 70
2019-04-13 02:00:00 5.2 4 Nordeste 10 Nordeste 0 -- -- 62
2019-04-13 01:00:00 5.7 4 Nordeste 7 Nordeste 0 -- -- 64
2019-04-13 00:00:00 6.3 3 Nordeste 12 Norte 0 -- -- 61
2019-04-12 23:00:00 7.1 0 Calma 10 Este 0 -- -- 61
2019-04-12 22:00:00 9.8 5 Oeste 9 Noroeste 0 -- -- 49
2019-04-12 21:00:00 12.5 5 Noroeste 23 Noroeste 0 -- -- 42
2019-04-12 20:00:00 14.9 15 Noroeste 24 Noroeste 0 -- -- 36
2019-04-12 19:00:00 15.7 14 Noroeste 27 Noroeste 0 -- -- 35
2019-04-12 18:00:00 15.8 15 Noroeste 32 Oeste 0 -- -- 37
2019-04-12 17:00:00 15.5 18 Noroeste 40 Noroeste 0 -- -- 38
2019-04-12 16:00:00 15.3 15 Oeste 27 Noroeste 0 -- -- 40
2019-04-12 15:00:00 14.7 13 Noroeste 39 Noroeste 0 -- -- 40
2019-04-12 14:00:00 13.6 9 Noroeste 26 Noroeste 0 -- -- 44
2019-04-12 13:00:00 12.3 10 Noroeste 22 Noroeste 0 -- -- 50
2019-04-12 12:00:00 10.4 9 Noroeste 17 Noroeste 0 -- -- 55
2019-04-12 11:00:00 8.8 9 Noroeste 19 Noroeste 0 -- -- 59
2019-04-12 10:00:00 6.5 10 Noroeste 17 Noroeste 0 -- -- 71
2019-04-12 09:00:00 2.5 6 Oeste 10 Noroeste 0 -- -- 87
2019-04-12 08:00:00 0.8 0 Calma 21 Norte 0 -- -- 85
2019-04-12 07:00:00 2.2 9 Noroeste 17 Noroeste 0 -- -- 82
2019-04-12 06:00:00 2 5 Noroeste 11 Noroeste 0 -- -- 84
2019-04-12 05:00:00 2.5 5 Noroeste 11 Noroeste 0 -- -- 81
2019-04-12 04:00:00 2.9 6 Noroeste 14 Noroeste 0 -- -- 80
2019-04-12 03:00:00 4.2 2 Norte 9 Noroeste 0 -- -- 75
2019-04-12 02:00:00 5.9 6 Norte 14 Norte 0 -- -- 70
2019-04-12 01:00:00 6.7 4 Norte 15 Norte 0 -- -- 67
2019-04-12 00:00:00 7.5 8 Norte 17 Norte 0 -- -- 64
2019-04-11 23:00:00 8.7 10 Norte 17 Norte 0 -- -- 57
2019-04-11 22:00:00 9.7 12 Noroeste 21 Noroeste 0 -- -- 49
2019-04-11 21:00:00 11 10 Noroeste 28 Noroeste 0 -- -- 44
2019-04-11 20:00:00 13.5 15 Noroeste 34 Noroeste 0 -- -- 38
2019-04-11 19:00:00 14.4 18 Noroeste 36 Noroeste 0 -- -- 34
2019-04-11 18:00:00 14 17 Noroeste 35 Noroeste 0 -- -- 39
2019-04-11 17:00:00 14.9 16 Noroeste 40 Noroeste 0 -- -- 40
2019-04-11 16:00:00 14.1 20 Noroeste 36 Noroeste 0 -- -- 40
2019-04-11 15:00:00 13.8 18 Noroeste 32 Noroeste 0 -- -- 44
2019-04-11 14:00:00 12.9 18 Noroeste 36 Noroeste 0 -- -- 48
2019-04-11 13:00:00 11.9 17 Norte 27 Noroeste 0 -- -- 47
2019-04-11 12:00:00 10.8 11 Noroeste 21 Noroeste 0 -- -- 56
2019-04-11 11:00:00 8.8 13 Norte 24 Noroeste 0 -- -- 59
2019-04-11 10:00:00 6.7 10 Noroeste 19 Noroeste 0 -- -- 71
2019-04-11 09:00:00 3 5 Noroeste 12 Noroeste 0 -- -- 89
2019-04-11 08:00:00 1 2 Noroeste 13 Noroeste 0 -- -- 91
2019-04-11 07:00:00 1.7 9 Noroeste 16 Noroeste 0 -- -- 90
2019-04-11 06:00:00 2.7 9 Noroeste 19 Noroeste 0 -- -- 86
2019-04-11 05:00:00 2.6 7 Noroeste 15 Norte 0 -- -- 90
2019-04-11 04:00:00 2.3 0 Calma 7 Noroeste 0 -- -- 87
2019-04-11 03:00:00 3.4 3 Noroeste 13 Noroeste 0 -- -- 88
2019-04-11 02:00:00 3.1 3 Oeste 10 Noroeste 0 -- -- 87
2019-04-11 01:00:00 3.5 0 Calma 6 Nordeste 0 -- -- 85
2019-04-11 00:00:00 4.7 4 Nordeste 9 Norte 0 -- -- 82
2019-04-10 23:00:00 5.7 6 Norte 14 Norte 0 -- -- 76
2019-04-10 22:00:00 6 4 Noroeste 13 Norte 0 -- -- 74
2019-04-10 21:00:00 8 9 Noroeste 19 Noroeste 0 -- -- 67
2019-04-10 20:00:00 9.9 14 Noroeste 27 Noroeste 0 -- -- 60
2019-04-10 19:00:00 9.2 14 Noroeste 33 Noroeste 0 -- -- 64
2019-04-10 18:00:00 9.4 18 Noroeste 31 Noroeste 0 -- -- 64
2019-04-10 17:00:00 8.9 9 Noroeste 39 Noroeste 0 -- -- 71
2019-04-10 16:00:00 8.7 23 Noroeste 44 Noroeste 0 -- -- 66
2019-04-10 15:00:00 10.9 19 Noroeste 35 Noroeste 0 -- -- 51
2019-04-10 14:00:00 10.9 21 Noroeste 37 Noroeste 0 -- -- 56
2019-04-10 13:00:00 10.4 22 Oeste 37 Noroeste 0 -- -- 66
2019-04-10 12:00:00 9 21 Noroeste 37 Noroeste 0 -- -- 68
2019-04-10 11:00:00 7.6 20 Noroeste 36 Oeste 0 -- -- 78
2019-04-10 10:00:00 6 13 Oeste 28 Oeste 0 -- -- 90
2019-04-10 09:00:00 4.8 14 Oeste 25 Oeste 0 -- -- 95
2019-04-10 08:00:00 3.9 12 Noroeste 24 Noroeste 0 -- -- 96
2019-04-10 07:00:00 3.9 7 Oeste 23 Noroeste 0 -- -- 97
2019-04-10 06:00:00 2.4 5 Oeste 10 Oeste 0 -- -- 97
2019-04-10 05:00:00 2.1 3 Oeste 8 Oeste 0 -- -- 96
2019-04-10 04:00:00 2.2 3 Oeste 9 Oeste 0 -- -- 95
2019-04-10 03:00:00 3.1 2 Oeste 9 Oeste 0 -- -- 94
2019-04-10 02:00:00 3.6 5 Oeste 10 Oeste 0 -- -- 94
2019-04-10 01:00:00 2.5 3 Oeste 9 Oeste 0 -- -- 93
2019-04-10 00:00:00 3.8 5 Noroeste 8 Noroeste 0 -- -- 92
2019-04-09 23:00:00 4.4 3 Oeste 16 Sudoeste 0 -- -- 89
2019-04-09 22:00:00 4.6 5 Oeste 17 Noroeste 0 -- -- 82
2019-04-09 21:00:00 6.1 12 Noroeste 57 Oeste 0 -- -- 78
2019-04-09 20:00:00 6.4 16 Noroeste 51 Noroeste 1 -- -- 73
2019-04-09 19:00:00 9.5 17 Noroeste 36 Oeste 0 -- -- 70
2019-04-09 18:00:00 9.9 20 Oeste 37 Noroeste 0 -- -- 73
2019-04-09 17:00:00 6.9 12 Oeste 39 Noroeste 3.4 -- -- 89
2019-04-09 16:00:00 6.7 17 Oeste 41 Oeste 5.4 -- -- 84
2019-04-09 15:00:00 10.7 21 Oeste 36 Oeste 0 -- -- 65
2019-04-09 14:00:00 9.2 15 Oeste 32 Oeste 0 -- -- 67
2019-04-09 13:00:00 9.2 18 Oeste 37 Oeste 0 -- -- 65
2019-04-09 12:00:00 8 17 Oeste 36 Oeste 0 -- -- 77
2019-04-09 11:00:00 7 17 Oeste 34 Oeste 0 -- -- 80
2019-04-09 10:00:00 6.9 18 Oeste 32 Oeste 0 -- -- 81
2019-04-09 09:00:00 5.6 12 Oeste 34 Oeste 0 -- -- 88
2019-04-09 08:00:00 5.7 18 Noroeste 32 Noroeste 0 -- -- 87
2019-04-09 07:00:00 5.4 9 Oeste 22 Oeste 0 -- -- 90
2019-04-09 06:00:00 4.4 6 Noroeste 16 Noroeste 0 -- -- 92
2019-04-09 05:00:00 4.5 6 Noroeste 14 Noroeste 0 -- -- 89
2019-04-09 04:00:00 5.1 7 Oeste 16 Noroeste 0 -- -- 88
2019-04-09 03:00:00 5 4 Oeste 10 Oeste 0 -- -- 85
2019-04-09 02:00:00 5.4 0 Calma 10 Oeste 0 -- -- 84
2019-04-09 01:00:00 5.7 5 Oeste 10 Oeste 0 -- -- 89
2019-04-09 00:00:00 5.6 4 Sudoeste 13 Oeste 0 -- -- 88
2019-04-08 23:00:00 7.8 8 Sudoeste 15 Sudoeste 0 -- -- 83
2019-04-08 22:00:00 9.3 6 Sudoeste 17 Sudoeste 0 -- -- 81
2019-04-08 21:00:00 10.3 11 Sudoeste 24 Sudoeste 0 -- -- 83
2019-04-08 20:00:00 11.8 16 Sudoeste 33 Sudoeste 0 -- -- 79
2019-04-08 19:00:00 12.8 22 Sudoeste 41 Sudoeste 0 -- -- 76
2019-04-08 18:00:00 15.3 18 Oeste 38 Oeste 0 -- -- 54
2019-04-08 17:00:00 15.4 21 Oeste 36 Oeste 0 -- -- 57
2019-04-08 16:00:00 14.2 19 Noroeste 36 Noroeste 0 -- -- 62
2019-04-08 15:00:00 13.5 16 Oeste 30 Oeste 0 -- -- 70
2019-04-08 14:00:00 11.6 18 Oeste 31 Oeste 0 -- -- 79
2019-04-08 13:00:00 11.1 15 Oeste 31 Oeste 0 -- -- 83
2019-04-08 12:00:00 10 15 Oeste 38 Oeste 0 -- -- 89
2019-04-08 11:00:00 9.9 17 Oeste 32 Oeste 0 -- -- 89
2019-04-08 10:00:00 9 15 Oeste 26 Oeste 0 -- -- 96
2019-04-08 09:00:00 8.3 9 Oeste 19 Oeste 0.4 -- -- 98
2019-04-08 08:00:00 8.2 9 Oeste 23 Oeste 0.2 -- -- 98
2019-04-08 07:00:00 8 9 Oeste 17 Oeste 0.2 -- -- 98
2019-04-08 06:00:00 7.6 6 Oeste 14 Oeste 0.2 -- -- 98
2019-04-08 05:00:00 6.9 4 Oeste 9 Sudoeste 0.4 -- -- 98
2019-04-08 04:00:00 6.6 5 Sudoeste 7 Sudoeste 0.2 -- -- 97
2019-04-08 03:00:00 6.6 3 Sudoeste 8 Sudoeste 0 -- -- 96
2019-04-08 02:00:00 6.8 5 Sudoeste 12 Sudoeste 0 -- -- 93
2019-04-08 01:00:00 7.3 5 Sudoeste 7 Sudoeste 0 -- -- 88
2019-04-08 00:00:00 7.5 0 Calma 3 Noroeste 0 -- -- 84
2019-04-07 23:00:00 7.6 0 Calma 18 Oeste 0 -- -- 83
2019-04-07 22:00:00 8.4 6 Oeste 15 Oeste 0 -- -- 74
2019-04-07 21:00:00 8.7 7 Noroeste 31 Oeste 0 -- -- 66
2019-04-07 20:00:00 10 15 Noroeste 30 Oeste 0 -- -- 56
2019-04-07 19:00:00 10.7 15 Noroeste 36 Oeste 0 -- -- 50
2019-04-07 18:00:00 11.3 21 Noroeste 40 Noroeste 0 -- -- 43
2019-04-07 17:00:00 11.6 22 Noroeste 39 Oeste 0 -- -- 47
2019-04-07 16:00:00 10.4 21 Noroeste 40 Oeste 0 -- -- 53
2019-04-07 15:00:00 11 21 Oeste 46 Noroeste 0 -- -- 49
2019-04-07 14:00:00 9.5 27 Noroeste 45 Noroeste 0 -- -- 54
2019-04-07 13:00:00 8.8 23 Oeste 47 Noroeste 0 -- -- 60
2019-04-07 12:00:00 7.7 26 Noroeste 49 Oeste 0 -- -- 66
2019-04-07 11:00:00 6.3 23 Noroeste 44 Oeste 0 -- -- 77
2019-04-07 10:00:00 5 23 Noroeste 43 Noroeste 0.2 -- -- 83
2019-04-07 09:00:00 4 17 Noroeste 33 Noroeste 0 -- -- 90
2019-04-07 08:00:00 3.1 13 Oeste 29 Oeste 0.2 -- -- 95
2019-04-07 07:00:00 3.1 13 Oeste 31 Noroeste 0 -- -- 94
2019-04-07 06:00:00 3.2 13 Oeste 26 Oeste 0.2 -- -- 94
2019-04-07 05:00:00 3.4 14 Oeste 32 Oeste 0 -- -- 95
2019-04-07 04:00:00 3.1 14 Oeste 28 Noroeste 0 -- -- 95
2019-04-07 03:00:00 3 13 Oeste 30 Oeste 0 -- -- 91
2019-04-07 02:00:00 3.6 14 Oeste 24 Oeste 0 -- -- 91
2019-04-07 01:00:00 4 9 Oeste 28 Oeste 0 -- -- 88
2019-04-07 00:00:00 4.3 14 Oeste 27 Oeste 0 -- -- 89
2019-04-06 23:00:00 4.6 16 Oeste 34 Oeste 0 -- -- 86
2019-04-06 22:00:00 4.2 15 Sudoeste 29 Oeste 0 -- -- 88
2019-04-06 21:00:00 5.2 17 Oeste 35 Oeste 0 -- -- 81
2019-04-06 20:00:00 6.6 17 Oeste 35 Oeste 0 -- -- 72
2019-04-06 19:00:00 7.4 18 Oeste 40 Oeste 0 -- -- 73
2019-04-06 18:00:00 5.6 16 Oeste 35 Noroeste 0.2 -- -- 79
2019-04-06 17:00:00 6.5 13 Noroeste 45 Sudoeste 0 -- -- 77
2019-04-06 16:00:00 8.6 29 Sudoeste 48 Sudoeste 0 -- -- 78
2019-04-06 15:00:00 6.9 23 Oeste 59 Oeste 0.4 -- -- 83
2019-04-06 14:00:00 6.6 26 Sudoeste 44 Sudoeste 0 -- -- 81
2019-04-06 13:00:00 5.1 22 Oeste 41 Oeste 0 -- -- 88
2019-04-06 12:00:00 5.7 18 Oeste 39 Oeste 0 -- -- 81
2019-04-06 11:00:00 5.2 15 Oeste 35 Oeste 0 -- -- 83
2019-04-06 10:00:00 3.8 16 Oeste 36 Sudoeste 0 -- -- 91
2019-04-06 09:00:00 3 20 Oeste 38 Oeste 0 -- -- 94
2019-04-06 08:00:00 2.8 13 Oeste 32 Oeste 0 -- -- 94
2019-04-06 07:00:00 2.8 13 Oeste 35 Oeste 0 -- -- 94
2019-04-06 06:00:00 2.6 14 Oeste 36 Oeste 0.4 -- -- 95
2019-04-06 05:00:00 3.2 14 Oeste 26 Oeste 0 -- -- 95
2019-04-06 04:00:00 3.2 12 Oeste 28 Oeste 0.2 -- -- 95
2019-04-06 03:00:00 3.1 11 Oeste 24 Oeste 0 -- -- 93
2019-04-06 02:00:00 2.6 10 Oeste 21 Oeste 0 -- -- 92
2019-04-06 01:00:00 1.6 5 Oeste 11 Oeste 0 -- -- 91
2019-04-06 00:00:00 1.6 3 Sudoeste 10 Noroeste 0 -- -- 90
2019-04-05 23:00:00 2.2 4 Oeste 12 Oeste 0 -- -- 92
2019-04-05 22:00:00 3 8 Oeste 31 Noroeste 0 -- -- 89
2019-04-05 21:00:00 3.5 14 Oeste 24 Oeste 0.8 -- -- 92
2019-04-05 20:00:00 3.8 8 Oeste 38 Oeste 0.4 -- -- 91
2019-04-05 19:00:00 6 13 Sudoeste 22 Sudoeste 0 -- -- 87
2019-04-05 18:00:00 4.8 8 Sudoeste 24 Noroeste 0.6 -- -- 90
2019-04-05 17:00:00 4.4 19 Oeste 42 Sudoeste 1 -- -- 88
2019-04-05 16:00:00 7.2 14 Sur 27 Sur 0 -- -- 81
2019-04-05 15:00:00 7.5 13 Sur 23 Sur 0 -- -- 86
2019-04-05 14:00:00 6.8 11 Sur 34 Sudoeste 0.8 -- -- 87
2019-04-05 13:00:00 7.1 13 Sudoeste 32 Sudoeste 0.2 -- -- 84
2019-04-05 12:00:00 8.9 22 Sudoeste 32 Sudoeste 0 -- -- 68
2019-04-05 11:00:00 9 21 Sudoeste 33 Sudoeste 0 -- -- 66
2019-04-05 10:00:00 7.2 19 Sudoeste 28 Oeste 0 -- -- 71
2019-04-05 09:00:00 5.8 12 Sudoeste 20 Sudoeste 0 -- -- 80
2019-04-05 08:00:00 5.3 14 Sudoeste 24 Sudoeste 0 -- -- 78
2019-04-05 07:00:00 5.3 12 Sudoeste 26 Sudoeste 0 -- -- 78
2019-04-05 06:00:00 5.7 18 Sudoeste 27 Sudoeste 0 -- -- 73
2019-04-05 05:00:00 6 13 Sudoeste 21 Sudoeste 0 -- -- 72
2019-04-05 04:00:00 5.9 15 Sur 27 Sur 0 -- -- 84
2019-04-05 03:00:00 6 17 Sur 28 Sur 0 -- -- 89
2019-04-05 02:00:00 5.8 15 Sur 26 Sur 0 -- -- 92
2019-04-05 01:00:00 6.7 14 Sudeste 23 Sudeste 0 -- -- 87
2019-04-05 00:00:00 6.2 8 Sudeste 17 Sur 0 -- -- 83
2019-04-04 23:00:00 5.2 4 Nordeste 7 Nordeste 0 -- -- 60
2019-04-04 22:00:00 6.3 5 Nordeste 6 Nordeste 0 -- -- 53
2019-04-04 21:00:00 8.1 0 Calma 13 Oeste 0 -- -- 47
2019-04-04 20:00:00 11.4 8 Oeste 22 Oeste 0 -- -- 33
2019-04-04 19:00:00 12.6 9 Oeste 23 Oeste 0 -- -- 30
2019-04-04 18:00:00 12.9 13 Sudoeste 21 Sudoeste 0 -- -- 31
2019-04-04 17:00:00 12.6 8 Oeste 21 Oeste 0 -- -- 31
2019-04-04 16:00:00 11.9 9 Oeste 24 Oeste 0 -- -- 32
2019-04-04 15:00:00 10.9 11 Oeste 22 Oeste 0 -- -- 28
2019-04-04 14:00:00 10.3 13 Oeste 32 Oeste 0 -- -- 28
2019-04-04 13:00:00 9.6 6 Oeste 19 Oeste 0 -- -- 34
2019-04-04 12:00:00 8.4 8 Noroeste 21 Noroeste 0 -- -- 32
2019-04-04 11:00:00 6.8 9 Noroeste 23 Noroeste 0 -- -- 39
2019-04-04 10:00:00 4.3 10 Noroeste 18 Norte 0 -- -- 52
2019-04-04 09:00:00 3 6 Noroeste 13 Noroeste 0 -- -- 61
2019-04-04 08:00:00 2.3 4 Norte 14 Norte 0 -- -- 64
2019-04-04 07:00:00 3 7 Norte 13 Norte 0 -- -- 61
2019-04-04 06:00:00 3.7 7 Noroeste 13 Noroeste 0 -- -- 62
2019-04-04 05:00:00 1.9 0 Calma 5 Noroeste 0 -- -- 78
2019-04-04 04:00:00 1.4 0 Calma 3 Sudoeste 0 -- -- 79
2019-04-04 03:00:00 3.7 0 Calma 10 Norte 0 -- -- 67
2019-04-04 02:00:00 6.3 5 Norte 17 Norte 0 -- -- 55
2019-04-04 01:00:00 7.3 9 Noroeste 18 Noroeste 0 -- -- 50
2019-04-04 00:00:00 8.4 7 Noroeste 13 Noroeste 0 -- -- 49
2019-04-03 23:00:00 9.1 5 Norte 19 Noroeste 0 -- -- 48
2019-04-03 22:00:00 9.8 10 Noroeste 23 Norte 0 -- -- 50
2019-04-03 21:00:00 10.9 8 Norte 33 Noroeste 0 -- -- 53
2019-04-03 20:00:00 13.1 18 Noroeste 34 Noroeste 0 -- -- 46
2019-04-03 19:00:00 15.1 17 Noroeste 40 Oeste 0 -- -- 40
2019-04-03 18:00:00 15.5 21 Oeste 51 Oeste 0 -- -- 38
2019-04-03 17:00:00 16.5 22 Oeste 49 Oeste 0 -- -- 34
2019-04-03 16:00:00 16 27 Oeste 48 Oeste 0 -- -- 38
2019-04-03 15:00:00 15.6 25 Oeste 47 Sudoeste 0 -- -- 41
2019-04-03 14:00:00 14.2 20 Oeste 44 Oeste 0 -- -- 51
2019-04-03 13:00:00 13.8 22 Oeste 40 Sudoeste 0 -- -- 56
2019-04-03 12:00:00 13 21 Sudoeste 30 Sudoeste 0 -- -- 69
2019-04-03 11:00:00 11.1 15 Sudoeste 22 Oeste 0 -- -- 78
2019-04-03 10:00:00 8.4 11 Oeste 15 Oeste 0 -- -- 92
2019-04-03 09:00:00 3 0 Calma 2 Nordeste 0 -- -- 99
2019-04-03 08:00:00 1.9 0 Calma 3 Este 0 -- -- 96
2019-04-03 07:00:00 2.7 0 Calma 4 Nordeste 0 -- -- 95
2019-04-03 06:00:00 3.1 3 Nordeste 5 Nordeste 0 -- -- 95
2019-04-03 05:00:00 3.1 3 Nordeste 4 Nordeste 0 -- -- 95
2019-04-03 04:00:00 3.2 4 Nordeste 5 Este 0 -- -- 94
2019-04-03 03:00:00 4.4 3 Nordeste 6 Norte 0 -- -- 94
2019-04-03 02:00:00 4.7 2 Norte 5 Nordeste 0 -- -- 94
2019-04-03 01:00:00 5.7 0 Calma 6 Sudoeste 0 -- -- 93
2019-04-03 00:00:00 6.8 3 Sur 8 Sur 0 -- -- 84
2019-04-02 23:00:00 8.9 2 Norte 10 Nordeste 0 -- -- 83
2019-04-02 22:00:00 9.2 4 Nordeste 18 Norte 0 -- -- 81
2019-04-02 21:00:00 10 10 Norte 30 Norte 0 -- -- 75
2019-04-02 20:00:00 11.9 3 Noroeste 28 Sudoeste 0 -- -- 72
2019-04-02 19:00:00 12.5 18 Oeste 30 Oeste 0.2 -- -- 64
2019-04-02 18:00:00 14.9 9 Oeste 18 Oeste 0 -- -- 53
2019-04-02 17:00:00 12.7 4 Noroeste 29 Noroeste 0.4 -- -- 69
2019-04-02 16:00:00 15.1 13 Oeste 27 Oeste 0 -- -- 61
2019-04-02 15:00:00 13.7 12 Oeste 24 Oeste 0 -- -- 71
2019-04-02 14:00:00 14.4 11 Oeste 19 Sudoeste 0 -- -- 75
2019-04-02 13:00:00 12.1 8 Oeste 17 Oeste 0 -- -- 82
2019-04-02 12:00:00 11.6 8 Oeste 16 Oeste 0 -- -- 86
2019-04-02 11:00:00 10.7 9 Oeste 16 Oeste 0 -- -- 89
2019-04-02 10:00:00 8.7 5 Noroeste 9 Noroeste 0 -- -- 98
2019-04-02 09:00:00 7.1 0 Calma 4 Norte 0 -- -- 98
2019-04-02 08:00:00 6.4 0 Calma 5 Norte 0 -- -- 97
2019-04-02 07:00:00 7.1 2 Norte 5 Norte 0 -- -- 97
2019-04-02 06:00:00 7.8 2 Norte 5 Noroeste 0 -- -- 97
2019-04-02 05:00:00 8.1 2 Norte 4 Noroeste 0 -- -- 98
2019-04-02 04:00:00 8 0 Calma 7 Norte 0 -- -- 98
2019-04-02 03:00:00 7.8 3 Este 6 Este 0 -- -- 97
2019-04-02 02:00:00 8.1 2 Nordeste 9 Nordeste 0 -- -- 97
2019-04-02 01:00:00 8.2 4 Este 10 Sudeste 0 -- -- 97
2019-04-02 00:00:00 8.4 4 Este 12 Este 0 -- -- 97
2019-04-01 23:00:00 8.5 6 Sudeste 18 Este 0 -- -- 97
2019-04-01 22:00:00 8.6 7 Sudeste 16 Sudeste 0 -- -- 96
2019-04-01 21:00:00 8.7 4 Nordeste 9 Nordeste 0 -- -- 93
2019-04-01 20:00:00 9.1 4 Este 14 Noroeste 2 -- -- 92
2019-04-01 19:00:00 10.8 7 Sudeste 22 Sur 0.4 -- -- 89
2019-04-01 18:00:00 11.3 18 Sudeste 23 Sudeste 0 -- -- 85
2019-04-01 17:00:00 13.3 9 Sudeste 19 Sudeste 0 -- -- 74
2019-04-01 16:00:00 12.7 9 Sudeste 18 Este 0 -- -- 79
2019-04-01 15:00:00 12.6 12 Sudeste 18 Este 0 -- -- 83
2019-04-01 14:00:00 10.3 11 Sudeste 20 Sudeste 0 -- -- 92
2019-04-01 13:00:00 10.4 12 Sudeste 21 Sudeste 0 -- -- 95
2019-04-01 12:00:00 9 10 Sudeste 16 Sudeste 0.2 -- -- 96
2019-04-01 11:00:00 8.8 6 Sudeste 12 Sudeste 0 -- -- 97
2019-04-01 10:00:00 8.2 2 Este 6 Este 0.2 -- -- 98
2019-04-01 09:00:00 7.7 0 Calma 4 Sur 0.4 -- -- 98
2019-04-01 08:00:00 7.6 2 Sur 4 Sudoeste 1 -- -- 97
2019-04-01 07:00:00 7.6 0 Calma 5 Sudoeste 2.6 -- -- 97
2019-04-01 06:00:00 7.7 3 Nordeste 6 Sudoeste 1 -- -- 97
2019-04-01 05:00:00 7.7 2 Este 6 Nordeste 0.2 -- -- 96
2019-04-01 04:00:00 7.6 0 Calma 9 Nordeste 0 -- -- 97
2019-04-01 03:00:00 7.5 4 Nordeste 10 Nordeste 0.6 -- -- 97
2019-04-01 02:00:00 7.4 8 Nordeste 15 Nordeste 0.4 -- -- 97
2019-04-01 01:00:00 7.4 6 Este 10 Nordeste 0.4 -- -- 96
2019-04-01 00:00:00 7.7 5 Este 13 Este 0 -- -- 95
2019-03-31 23:00:00 7.8 4 Este 13 Este 0 -- -- 94
2019-03-31 22:00:00 8 7 Este 16 Nordeste 0 -- -- 94
2019-03-31 21:00:00 8.1 5 Este 24 Nordeste 0 -- -- 93
2019-03-31 20:00:00 8.3 8 Este 21 Este 0.2 -- -- 92
2019-03-31 19:00:00 8.7 9 Este 21 Este 0.2 -- -- 91
2019-03-31 18:00:00 8.9 7 Este 20 Este 0.2 -- -- 91
2019-03-31 17:00:00 8.9 8 Este 22 Nordeste 0 -- -- 90
2019-03-31 16:00:00 8.9 9 Este 19 Este 0.2 -- -- 90
2019-03-31 15:00:00 9.1 8 Este 25 Este 0.6 -- -- 91
2019-03-31 14:00:00 8.4 10 Este 23 Nordeste 1 -- -- 94
2019-03-31 13:00:00 7.4 7 Este 22 Nordeste 2 -- -- 94
2019-03-31 12:00:00 7.3 13 Nordeste 24 Nordeste 1 -- -- 92
2019-03-31 11:00:00 6.3 12 Nordeste 21 Este 2.2 -- -- 95
2019-03-31 10:00:00 5.9 10 Nordeste 20 Nordeste 2.2 -- -- 94
2019-03-31 09:00:00 5.7 10 Nordeste 23 Este 1.8 -- -- 95
2019-03-31 08:00:00 5.5 12 Este 25 Este 0.8 -- -- 94
2019-03-31 07:00:00 5.9 9 Este 23 Este 0 -- -- 91
2019-03-31 06:00:00 6 6 Este 20 Este 0 -- -- 92
2019-03-31 05:00:00 5.9 11 Este 27 Este 0.2 -- -- 93
2019-03-31 03:00:00 5.3 6 Este 16 Este 0 -- -- 80
2019-03-31 01:00:00 5.2 5 Este 13 Nordeste 0 -- -- 80
2019-03-31 00:00:00 5.9 6 Este 18 Este 0 -- -- 77
2019-03-30 23:00:00 6.5 6 Este 38 Este 0 -- -- 76
2019-03-30 22:00:00 7.7 13 Este 27 Este 0 -- -- 68
2019-03-30 21:00:00 8.2 12 Este 34 Este 0 -- -- 67
2019-03-30 20:00:00 9.6 11 Este 35 Este 0 -- -- 65
2019-03-30 19:00:00 11.8 17 Este 33 Este 0 -- -- 59
2019-03-30 18:00:00 14.2 15 Este 33 Sudeste 0 -- -- 51
2019-03-30 17:00:00 15.3 15 Sudeste 34 Sudeste 0 -- -- 47
2019-03-30 16:00:00 16.4 17 Sudeste 32 Sudeste 0 -- -- 44
2019-03-30 15:00:00 16 19 Sudeste 32 Sudeste 0 -- -- 42
2019-03-30 14:00:00 15 15 Sudeste 31 Sudeste 0 -- -- 44
2019-03-30 13:00:00 14 14 Sudeste 30 Este 0 -- -- 46
2019-03-30 12:00:00 12 16 Sudeste 30 Sudeste 0 -- -- 56
2019-03-30 11:00:00 10.8 17 Sudeste 30 Sudeste 0 -- -- 62
2019-03-30 10:00:00 8.7 13 Este 28 Este 0 -- -- 71
2019-03-30 09:00:00 6.2 14 Este 27 Sudeste 0 -- -- 80
2019-03-30 08:00:00 3.8 9 Este 20 Este 0 -- -- 85
2019-03-30 07:00:00 4 9 Nordeste 17 Nordeste 0 -- -- 87
2019-03-30 06:00:00 4 9 Este 17 Nordeste 0 -- -- 88
2019-03-30 05:00:00 4 8 Este 17 Este 0 -- -- 88
2019-03-30 04:00:00 3.1 6 Este 13 Nordeste 0 -- -- 86
2019-03-30 03:00:00 2.9 3 Este 10 Este 0 -- -- 81
2019-03-30 02:00:00 2.7 4 Este 10 Nordeste 0 -- -- 86
2019-03-30 01:00:00 2.8 2 Este 14 Este 0 -- -- 75
2019-03-30 00:00:00 4 5 Este 18 Este 0 -- -- 66
2019-03-29 23:00:00 5 6 Este 22 Sudeste 0 -- -- 59
2019-03-29 22:00:00 6.1 10 Este 25 Este 0 -- -- 50
2019-03-29 21:00:00 7.4 12 Este 28 Este 0 -- -- 50
2019-03-29 20:00:00 9.2 15 Este 33 Este 0 -- -- 49
2019-03-29 19:00:00 11.1 17 Este 36 Este 0 -- -- 46
2019-03-29 18:00:00 12.8 16 Este 35 Este 0 -- -- 43
2019-03-29 17:00:00 14 18 Este 33 Sudeste 0 -- -- 40
2019-03-29 16:00:00 14.6 17 Sudeste 37 Este 0 -- -- 39
2019-03-29 15:00:00 14.9 18 Sudeste 42 Este 0 -- -- 36
2019-03-29 14:00:00 15.4 19 Sudeste 38 Sudeste 0 -- -- 37
2019-03-29 13:00:00 14.4 18 Sudeste 38 Sudeste 0 -- -- 38
2019-03-29 12:00:00 12.9 19 Sudeste 42 Este 0 -- -- 41
2019-03-29 11:00:00 12 18 Sudeste 34 Sudeste 0 -- -- 40
2019-03-29 10:00:00 10.9 17 Este 34 Este 0 -- -- 41
2019-03-29 09:00:00 8.7 9 Este 21 Este 0 -- -- 48
2019-03-29 08:00:00 3.6 8 Este 14 Este 0 -- -- 57
2019-03-29 07:00:00 2.8 6 Nordeste 18 Este 0 -- -- 55
2019-03-29 06:00:00 3.1 11 Nordeste 16 Este 0 -- -- 53
2019-03-29 05:00:00 3 9 Nordeste 16 Nordeste 0 -- -- 54
2019-03-29 04:00:00 3.9 9 Nordeste 14 Nordeste 0 -- -- 54
2019-03-29 03:00:00 3.9 6 Nordeste 12 Nordeste 0 -- -- 53
2019-03-29 02:00:00 3.9 6 Este 11 Este 0 -- -- 54
2019-03-29 01:00:00 3.7 4 Este 10 Este 0 -- -- 56
2019-03-29 00:00:00 4.3 4 Este 11 Sudeste 0 -- -- 53
2019-03-28 23:00:00 5.5 4 Este 18 Este 0 -- -- 49
2019-03-28 22:00:00 7.2 8 Sudeste 22 Este 0 -- -- 44
2019-03-28 21:00:00 9 9 Este 22 Este 0 -- -- 40
2019-03-28 20:00:00 11.1 13 Sudeste 24 Sudeste 0 -- -- 35
2019-03-28 19:00:00 13.8 14 Sudeste 28 Este 0 -- -- 29
2019-03-28 18:00:00 15.6 16 Sudeste 33 Sudeste 0 -- -- 26
2019-03-28 17:00:00 16.5 14 Sudeste 27 Sur 0 -- -- 24
2019-03-28 16:00:00 17.1 12 Sudeste 33 Sudeste 0 -- -- 22
2019-03-28 15:00:00 16.5 10 Sudeste 28 Sudeste 0 -- -- 24
2019-03-28 14:00:00 15.6 9 Sudeste 30 Sudeste 0 -- -- 26
2019-03-28 13:00:00 14.9 9 Sudeste 29 Este 0 -- -- 29
2019-03-28 12:00:00 14.1 10 Sudeste 32 Sudeste 0 -- -- 22
2019-03-28 11:00:00 13.3 9 Sudeste 22 Sudeste 0 -- -- 18
2019-03-28 10:00:00 10.9 5 Este 13 Nordeste 0 -- -- 24
2019-03-28 09:00:00 5.3 4 Este 9 Nordeste 0 -- -- 49
2019-03-28 08:00:00 0.1 6 Nordeste 10 Nordeste 0 -- -- 62
2019-03-28 07:00:00 -1.9 4 Nordeste 6 Nordeste 0 -- -- 68
2019-03-28 06:00:00 -0.7 4 Nordeste 8 Nordeste 0 -- -- 62
2019-03-28 05:00:00 -1.1 5 Nordeste 7 Nordeste 0 -- -- 64
2019-03-28 04:00:00 -0.3 3 Nordeste 8 Norte 0 -- -- 62
2019-03-28 03:00:00 1.2 4 Norte 7 Nordeste 0 -- -- 61
2019-03-28 02:00:00 2.2 2 Norte 11 Nordeste 0 -- -- 60
2019-03-28 01:00:00 4.8 4 Nordeste 12 Nordeste 0 -- -- 53
2019-03-28 00:00:00 5.8 6 Nordeste 14 Este 0 -- -- 49
2019-03-27 23:00:00 5.4 4 Este 16 Este 0 -- -- 46
2019-03-27 22:00:00 6.8 6 Este 22 Este 0 -- -- 39
2019-03-27 21:00:00 8.1 6 Este 18 Sudeste 0 -- -- 37
2019-03-27 20:00:00 10.3 10 Sudeste 22 Sudeste 0 -- -- 30
2019-03-27 19:00:00 13.1 11 Sudeste 24 Sudeste 0 -- -- 26
2019-03-27 18:00:00 15.4 12 Sudeste 27 Sudeste 0 -- -- 24
2019-03-27 17:00:00 16.4 12 Sudeste 28 Este 0 -- -- 23
2019-03-27 16:00:00 16.9 15 Sudeste 30 Sudeste 0 -- -- 21
2019-03-27 15:00:00 15.9 10 Sur 31 Nordeste 0 -- -- 25
2019-03-27 14:00:00 15 7 Sudeste 25 Sur 0 -- -- 27
2019-03-27 13:00:00 14.1 6 Nordeste 25 Sudeste 0 -- -- 30
2019-03-27 12:00:00 12.5 10 Sudeste 25 Sudeste 0 -- -- 38
2019-03-27 11:00:00 11.1 11 Sudeste 19 Sudeste 0 -- -- 36
2019-03-27 10:00:00 10 7 Sudeste 15 Sudeste 0 -- -- 45
2019-03-27 09:00:00 6.7 6 Nordeste 17 Nordeste 0 -- -- 63
2019-03-27 08:00:00 3.7 7 Nordeste 14 Nordeste 0 -- -- 78
2019-03-27 07:00:00 3 6 Nordeste 15 Nordeste 0 -- -- 79
2019-03-27 06:00:00 3.5 6 Nordeste 17 Norte 0 -- -- 75
2019-03-27 05:00:00 4.2 8 Nordeste 18 Nordeste 0 -- -- 72
2019-03-27 04:00:00 4 11 Este 20 Este 0 -- -- 79
2019-03-27 03:00:00 4.9 6 Este 27 Este 0 -- -- 77
2019-03-27 02:00:00 6.1 11 Este 28 Este 0 -- -- 76
2019-03-27 01:00:00 6.4 11 Este 31 Sudeste 0 -- -- 74
2019-03-27 00:00:00 6.5 13 Este 28 Este 0 -- -- 75